createdAt,value
2018-11-05T00:01:16.258Z,50.94
2018-11-05T00:03:44.542Z,50.92
2018-11-05T00:06:13.300Z,50.88
2018-11-05T00:08:41.668Z,51.22
2018-11-05T00:11:10.688Z,50.99
2018-11-05T00:13:38.936Z,50.84
2018-11-05T00:16:07.379Z,51.21
2018-11-05T00:18:35.687Z,51.65
2018-11-05T00:21:03.956Z,51.55
2018-11-05T00:23:32.303Z,51.04
2018-11-05T00:26:00.575Z,51.63
2018-11-05T00:28:28.898Z,51.30
2018-11-05T00:30:57.112Z,51.50
2018-11-05T00:33:25.480Z,51.41
2018-11-05T00:35:53.797Z,52.74
2018-11-05T00:38:22.076Z,52.70
2018-11-05T00:40:50.371Z,53.53
2018-11-05T00:43:18.760Z,52.73
2018-11-05T00:45:47.720Z,52.74
2018-11-05T00:48:15.927Z,51.67
2018-11-05T00:50:44.417Z,52.24
2018-11-05T00:53:12.807Z,53.04
2018-11-05T00:55:41.428Z,53.28
2018-11-05T00:58:09.702Z,52.84
2018-11-05T01:00:37.978Z,51.96
2018-11-05T01:03:06.261Z,52.92
2018-11-05T01:05:34.540Z,52.50
2018-11-05T01:08:02.846Z,52.69
2018-11-05T01:10:31.280Z,52.74
2018-11-05T01:12:59.646Z,53.38
2018-11-05T01:15:28.029Z,52.61
2018-11-05T01:17:56.319Z,52.68
2018-11-05T01:20:24.833Z,52.97
2018-11-05T01:22:53.129Z,53.24
2018-11-05T01:25:21.404Z,53.03
2018-11-05T01:27:49.851Z,52.99
2018-11-05T01:30:18.100Z,52.66
2018-11-05T01:32:46.384Z,52.25
2018-11-05T01:35:14.876Z,52.83
2018-11-05T01:37:43.381Z,53.14
2018-11-05T01:40:14.282Z,53.79
2018-11-05T01:42:42.697Z,53.15
2018-11-05T01:45:12.280Z,52.94
2018-11-05T01:47:41.313Z,52.67
2018-11-05T01:50:11.502Z,53.58
2018-11-05T01:52:40.394Z,52.38
2018-11-05T01:55:09.368Z,53.44
2018-11-05T01:57:38.152Z,52.48
2018-11-05T02:00:09.085Z,52.43
2018-11-05T02:02:37.620Z,51.42
2018-11-05T02:05:06.656Z,51.63
2018-11-05T02:07:35.068Z,52.66
2018-11-05T02:10:04.171Z,53.69
2018-11-05T02:12:32.424Z,52.33
2018-11-05T02:15:00.863Z,53.69
2018-11-05T02:17:29.150Z,53.74
2018-11-05T02:19:57.407Z,53.74
2018-11-05T02:22:26.349Z,53.65
2018-11-05T02:24:54.625Z,53.61
2018-11-05T02:27:23.032Z,54.07
2018-11-05T02:29:51.330Z,53.54
2018-11-05T02:32:19.667Z,53.41
2018-11-05T02:34:48.008Z,53.38
2018-11-05T02:37:16.377Z,53.74
2018-11-05T02:39:44.638Z,53.90
2018-11-05T02:42:12.911Z,53.64
2018-11-05T02:44:41.814Z,53.74
2018-11-05T02:47:10.112Z,52.84
2018-11-05T02:49:38.483Z,53.75
2018-11-05T02:52:06.930Z,53.35
2018-11-05T02:54:35.251Z,53.99
2018-11-05T02:57:03.536Z,54.32
2018-11-05T02:59:31.906Z,54.48
2018-11-05T03:02:00.270Z,53.77
2018-11-05T03:04:28.695Z,54.05
2018-11-05T03:06:56.960Z,54.29
2018-11-05T03:09:25.239Z,54.16
2018-11-05T03:11:53.544Z,54.44
2018-11-05T03:14:21.947Z,53.35
2018-11-05T03:16:50.253Z,52.97
2018-11-05T03:19:18.496Z,52.92
2018-11-05T03:21:46.808Z,53.76
2018-11-05T03:24:15.067Z,54.06
2018-11-05T03:26:43.405Z,53.87
2018-11-05T03:29:11.817Z,54.75
2018-11-05T03:31:40.082Z,53.32
2018-11-05T03:34:08.389Z,54.48
2018-11-05T03:36:36.696Z,54.67
2018-11-05T03:39:07.844Z,53.73
2018-11-05T03:41:36.185Z,54.79
2018-11-05T03:44:04.964Z,53.67
2018-11-05T03:46:33.336Z,53.84
2018-11-05T03:49:01.612Z,53.89
2018-11-05T03:51:30.037Z,53.37
2018-11-05T03:53:58.386Z,53.11
2018-11-05T03:56:26.740Z,54.30
2018-11-05T03:58:55.080Z,53.92
2018-11-05T04:01:23.406Z,54.18
2018-11-05T04:03:51.656Z,54.45
2018-11-05T04:06:20.139Z,54.20
2018-11-05T04:08:48.395Z,53.86
2018-11-05T04:11:17.464Z,54.67
2018-11-05T04:13:45.848Z,54.01
2018-11-05T04:16:14.265Z,53.80
2018-11-05T04:18:42.479Z,54.47
2018-11-05T04:21:10.811Z,53.50
2018-11-05T04:23:39.231Z,53.76
2018-11-05T04:26:07.544Z,54.62
2018-11-05T04:28:35.835Z,53.79
2018-11-05T04:31:04.186Z,54.21
2018-11-05T04:33:32.458Z,54.35
2018-11-05T04:36:00.853Z,54.50
2018-11-05T04:38:29.195Z,54.13
2018-11-05T04:40:58.196Z,54.13
2018-11-05T04:43:26.511Z,54.37
2018-11-05T04:45:54.873Z,54.82
2018-11-05T04:48:23.731Z,53.89
2018-11-05T04:50:52.034Z,53.72
2018-11-05T04:53:20.308Z,54.48
2018-11-05T04:55:48.866Z,54.49
2018-11-05T04:58:17.148Z,54.79
2018-11-05T05:00:45.409Z,54.52
2018-11-05T05:03:13.784Z,55.18
2018-11-05T05:05:42.353Z,54.70
2018-11-05T05:08:10.641Z,54.99
2018-11-05T05:10:39.090Z,54.84
2018-11-05T05:13:07.445Z,54.64
2018-11-05T05:15:35.728Z,54.46
2018-11-05T05:18:04.171Z,55.04
2018-11-05T05:20:32.477Z,55.41
2018-11-05T05:23:01.084Z,55.16
2018-11-05T05:25:29.198Z,54.52
2018-11-05T05:27:57.481Z,55.20
2018-11-05T05:30:25.804Z,54.31
2018-11-05T05:32:54.141Z,54.13
2018-11-05T05:35:22.392Z,54.45
2018-11-05T05:37:50.748Z,54.15
2018-11-05T05:40:19.018Z,54.13
2018-11-05T05:42:47.277Z,53.11
2018-11-05T05:45:15.631Z,53.74
2018-11-05T05:47:44.030Z,52.79
2018-11-05T05:50:14.539Z,53.30
2018-11-05T05:52:43.829Z,53.62
2018-11-05T05:55:12.289Z,53.55
2018-11-05T05:57:40.565Z,54.07
2018-11-05T06:00:11.799Z,53.36
2018-11-05T06:02:40.355Z,53.17
2018-11-05T06:05:10.424Z,52.49
2018-11-05T06:07:39.477Z,53.30
2018-11-05T06:10:08.220Z,53.24
2018-11-05T06:12:36.579Z,52.90
2018-11-05T06:15:05.348Z,56.18
2018-11-05T06:17:33.659Z,54.89
2018-11-05T06:20:01.986Z,55.82
2018-11-05T06:22:30.362Z,57.26
2018-11-05T06:24:59.242Z,56.02
2018-11-05T06:27:27.503Z,54.16
2018-11-05T06:29:55.858Z,54.23
2018-11-05T06:32:24.212Z,53.38
2018-11-05T06:34:52.523Z,53.76
2018-11-05T06:37:20.902Z,53.07
2018-11-05T06:39:49.283Z,52.36
2018-11-05T06:42:17.593Z,53.25
2018-11-05T06:44:46.059Z,53.08
2018-11-05T06:47:14.336Z,53.87
2018-11-05T06:49:42.685Z,54.51
2018-11-05T06:52:10.979Z,54.19
2018-11-05T06:54:39.360Z,53.46
2018-11-05T06:57:08.015Z,52.85
2018-11-05T06:59:36.378Z,52.50
2018-11-05T07:02:04.776Z,52.01
2018-11-05T07:04:33.101Z,51.94
2018-11-05T07:07:01.413Z,51.69
2018-11-05T07:09:29.679Z,51.15
2018-11-05T07:11:58.046Z,51.28
2018-11-05T07:14:26.404Z,50.93
2018-11-05T07:16:54.792Z,51.11
2018-11-05T07:19:23.149Z,51.01
2018-11-05T07:21:51.791Z,51.10
2018-11-05T07:24:20.256Z,51.36
2018-11-05T07:26:48.568Z,51.43
2018-11-05T07:29:16.921Z,51.95
2018-11-05T07:31:45.236Z,51.20
2018-11-05T07:34:13.603Z,51.26
2018-11-05T07:36:42.048Z,52.22
2018-11-05T07:39:11.577Z,51.22
2018-11-05T07:41:40.312Z,51.81
2018-11-05T07:44:08.814Z,50.61
2018-11-05T07:46:37.311Z,53.56
2018-11-05T07:49:05.808Z,52.52
2018-11-05T07:51:34.462Z,52.55
2018-11-05T07:54:02.776Z,52.15
2018-11-05T07:56:31.129Z,51.35
2018-11-05T07:58:59.373Z,50.62
2018-11-05T08:01:27.648Z,50.94
2018-11-05T08:03:56.023Z,51.73
2018-11-05T08:06:24.348Z,53.71
2018-11-05T08:08:52.734Z,53.46
2018-11-05T08:11:21.183Z,52.81
2018-11-05T08:13:49.489Z,52.27
2018-11-05T08:16:17.783Z,50.66
2018-11-05T08:18:46.105Z,52.08
2018-11-05T08:21:14.451Z,53.14
2018-11-05T08:23:42.729Z,52.20
2018-11-05T08:26:11.024Z,52.46
2018-11-05T08:28:39.389Z,51.67
2018-11-05T08:31:07.760Z,51.83
2018-11-05T08:33:36.241Z,50.18
2018-11-05T08:36:04.676Z,51.49
2018-11-05T08:38:33.422Z,50.27
2018-11-05T08:41:01.730Z,51.00
2018-11-05T08:43:30.160Z,51.88
2018-11-05T08:45:58.436Z,51.77
2018-11-05T08:48:30.284Z,53.05
2018-11-05T08:50:58.733Z,49.49
2018-11-05T08:53:26.924Z,47.66
2018-11-05T08:55:55.260Z,48.28
2018-11-05T08:58:24.656Z,47.36
2018-11-05T09:00:54.989Z,47.54
2018-11-05T09:03:23.368Z,49.38
2018-11-05T09:05:51.733Z,49.14
2018-11-05T09:08:20.080Z,50.15
2018-11-05T09:10:48.661Z,49.89
2018-11-05T09:13:16.768Z,50.97
2018-11-05T09:15:45.084Z,48.64
2018-11-05T09:18:13.386Z,48.18
2018-11-05T09:20:41.822Z,47.98
2018-11-05T09:23:10.125Z,47.61
2018-11-05T09:25:38.486Z,47.86
2018-11-05T09:28:07.179Z,47.56
2018-11-05T09:30:35.347Z,47.59
2018-11-05T09:33:03.650Z,46.66
2018-11-05T09:35:32.084Z,46.58
2018-11-05T09:38:00.430Z,46.81
2018-11-05T09:40:28.685Z,46.95
2018-11-05T09:42:57.083Z,45.29
2018-11-05T09:45:26.628Z,45.50
2018-11-05T09:47:54.925Z,44.27
2018-11-05T09:50:23.394Z,43.59
2018-11-05T09:52:51.634Z,44.12
2018-11-05T09:55:20.072Z,45.92
2018-11-05T09:57:48.461Z,45.80
2018-11-05T10:00:19.659Z,48.06
2018-11-05T10:02:53.282Z,46.64
2018-11-05T10:05:21.458Z,48.71
2018-11-05T10:07:49.725Z,49.12
2018-11-05T10:10:18.594Z,48.13
2018-11-05T10:12:46.847Z,47.20
2018-11-05T10:15:16.232Z,46.53
2018-11-05T10:17:44.579Z,46.91
2018-11-05T10:20:16.522Z,47.25
2018-11-05T10:22:45.453Z,47.64
2018-11-05T10:25:14.224Z,47.72
2018-11-05T10:27:42.538Z,48.40
2018-11-05T10:30:17.516Z,49.06
2018-11-05T10:32:45.899Z,46.51
2018-11-05T10:35:15.200Z,46.27
2018-11-05T10:37:43.522Z,46.66
2018-11-05T10:40:14.563Z,46.50
2018-11-05T10:42:43.510Z,46.51
2018-11-05T10:45:13.335Z,50.88
2018-11-05T10:47:41.647Z,49.27
2018-11-05T10:50:11.720Z,47.46
2018-11-05T10:52:39.946Z,45.65
2018-11-05T10:55:08.468Z,47.73
2018-11-05T10:57:36.784Z,45.45
2018-11-05T11:00:08.500Z,42.93
2018-11-05T11:02:37.696Z,43.72
2018-11-05T11:05:07.197Z,41.87
2018-11-05T11:07:35.556Z,41.12
2018-11-05T11:10:03.930Z,40.83
2018-11-05T11:12:32.240Z,40.52
2018-11-05T11:15:00.577Z,41.20
2018-11-05T11:17:28.882Z,40.58
2018-11-05T11:19:57.186Z,41.54
2018-11-05T11:22:25.464Z,44.67
2018-11-05T11:24:53.832Z,44.96
2018-11-05T11:27:22.122Z,43.39
2018-11-05T11:29:50.470Z,41.51
2018-11-05T11:32:18.904Z,41.54
2018-11-05T11:34:47.188Z,41.38
2018-11-05T11:37:15.533Z,40.29
2018-11-05T11:39:44.088Z,39.62
2018-11-05T11:42:12.563Z,40.09
2018-11-05T11:44:40.957Z,39.64
2018-11-05T11:47:10.096Z,38.31
2018-11-05T11:49:38.499Z,39.61
2018-11-05T11:52:06.952Z,38.40
2018-11-05T11:54:36.141Z,37.91
2018-11-05T11:57:04.466Z,35.71
2018-11-05T11:59:32.969Z,34.68
2018-11-05T12:02:06.746Z,33.86
2018-11-05T12:04:35.131Z,32.95
2018-11-05T12:07:03.441Z,30.33
2018-11-05T12:09:31.783Z,30.38
2018-11-05T12:12:00.083Z,28.49
2018-11-05T12:14:28.441Z,28.87
2018-11-05T12:16:56.713Z,28.82
2018-11-05T12:19:25.091Z,30.42
2018-11-05T12:21:53.474Z,31.56
2018-11-05T12:24:21.761Z,30.81
2018-11-05T12:26:50.129Z,31.52
2018-11-05T12:29:18.461Z,32.10
2018-11-05T12:31:47.265Z,33.96
2018-11-05T12:34:15.534Z,33.58
2018-11-05T12:36:44.010Z,32.47
2018-11-05T12:39:12.614Z,29.68
2018-11-05T12:41:41.384Z,26.74
2018-11-05T12:44:10.761Z,24.41
2018-11-05T12:46:40.206Z,24.09
2018-11-05T12:49:08.665Z,28.07
2018-11-05T12:51:37.038Z,30.87
2018-11-05T12:54:05.545Z,30.69
2018-11-05T12:56:34.070Z,29.39
2018-11-05T12:59:02.551Z,30.11
2018-11-05T13:01:31.470Z,30.98
2018-11-05T13:04:00.036Z,31.79
2018-11-05T13:06:28.366Z,31.88
2018-11-05T13:08:56.812Z,31.63
2018-11-05T13:11:25.439Z,32.62
2018-11-05T13:13:53.707Z,32.91
2018-11-05T13:16:22.139Z,30.13
2018-11-05T13:18:50.521Z,28.53
2018-11-05T13:21:19.040Z,25.42
2018-11-05T13:23:47.710Z,24.70
2018-11-05T13:26:16.583Z,23.73
2018-11-05T13:28:44.902Z,23.94
2018-11-05T13:31:13.318Z,20.82
2018-11-05T13:33:41.852Z,20.22
2018-11-05T13:36:10.183Z,18.81
2018-11-05T13:38:38.921Z,17.25
2018-11-05T13:41:06.981Z,16.33
2018-11-05T13:43:35.269Z,17.91
2018-11-05T13:46:03.868Z,18.47
2018-11-05T13:48:32.977Z,17.79
2018-11-05T13:51:00.776Z,20.23
2018-11-05T13:53:29.177Z,19.83
2018-11-05T13:55:57.478Z,17.74
2018-11-05T13:58:25.939Z,16.86
2018-11-05T14:00:54.300Z,18.34
2018-11-05T14:03:22.777Z,18.41
2018-11-05T14:05:51.274Z,18.14
2018-11-05T14:08:19.655Z,17.77
2018-11-05T14:10:47.910Z,17.69
2018-11-05T14:13:16.364Z,23.35
2018-11-05T14:15:45.408Z,23.84
2018-11-05T14:18:13.754Z,26.36
2018-11-05T14:20:42.060Z,29.56
2018-11-05T14:23:10.495Z,26.07
2018-11-05T14:25:39.047Z,24.05
2018-11-05T14:28:08.909Z,23.34
2018-11-05T14:30:36.881Z,21.83
2018-11-05T14:33:05.503Z,22.09
2018-11-05T14:35:33.792Z,20.06
2018-11-05T14:38:02.178Z,21.70
2018-11-05T14:40:30.492Z,21.58
2018-11-05T14:42:58.869Z,20.38
2018-11-05T14:45:27.169Z,19.24
2018-11-05T14:47:55.449Z,20.23
2018-11-05T14:50:24.182Z,21.81
2018-11-05T14:52:52.734Z,22.15
2018-11-05T14:55:21.222Z,25.43
2018-11-05T14:57:50.703Z,27.98
2018-11-05T15:00:20.634Z,32.17
2018-11-05T15:02:49.631Z,33.07
2018-11-05T15:05:17.987Z,37.66
2018-11-05T15:07:47.130Z,39.33
2018-11-05T15:10:17.927Z,37.96
2018-11-05T15:12:46.495Z,37.04
2018-11-05T15:15:15.484Z,36.61
2018-11-05T15:17:44.275Z,36.78
2018-11-05T15:20:14.074Z,37.70
2018-11-05T15:22:42.564Z,37.34
2018-11-05T15:25:11.270Z,38.24
2018-11-05T15:27:39.745Z,38.70
2018-11-05T15:30:18.174Z,39.91
2018-11-05T15:32:46.748Z,40.95
2018-11-05T15:35:15.431Z,42.84
2018-11-05T15:37:44.323Z,41.93
2018-11-05T15:40:14.482Z,41.38
2018-11-05T15:42:43.005Z,41.45
2018-11-05T15:45:12.870Z,41.94
2018-11-05T15:47:42.304Z,42.30
2018-11-05T15:50:17.424Z,42.58
2018-11-05T15:52:46.227Z,42.87
2018-11-05T15:55:14.220Z,43.09
2018-11-05T15:57:42.664Z,44.03
2018-11-05T16:00:18.149Z,44.07
2018-11-05T16:02:49.457Z,44.31
2018-11-05T16:05:18.199Z,44.80
2018-11-05T16:07:46.856Z,45.56
2018-11-05T16:10:15.477Z,44.80
2018-11-05T16:12:44.819Z,45.45
2018-11-05T16:15:13.768Z,45.49
2018-11-05T16:17:42.082Z,45.87
2018-11-05T16:20:13.593Z,46.34
2018-11-05T16:22:42.400Z,46.81
2018-11-05T16:25:10.891Z,47.52
2018-11-05T16:27:39.281Z,47.41
2018-11-05T16:30:09.704Z,48.35
2018-11-05T16:32:38.179Z,48.69
2018-11-05T16:35:06.892Z,48.56
2018-11-05T16:37:35.217Z,48.61
2018-11-05T16:40:04.518Z,48.19
2018-11-05T16:42:32.812Z,48.48
2018-11-05T16:45:01.121Z,48.63
2018-11-05T16:47:29.519Z,48.70
2018-11-05T16:49:57.873Z,48.83
2018-11-05T16:52:26.426Z,49.34
2018-11-05T16:54:54.829Z,50.21
2018-11-05T16:57:23.256Z,50.73
2018-11-05T16:59:51.716Z,50.51
2018-11-05T17:02:20.661Z,50.58
2018-11-05T17:04:48.584Z,50.81
2018-11-05T17:07:17.076Z,50.88
2018-11-05T17:09:45.430Z,51.53
2018-11-05T17:12:13.888Z,50.79
2018-11-05T17:14:42.338Z,51.41
2018-11-05T17:17:10.640Z,51.02
2018-11-05T17:19:38.985Z,51.19
2018-11-05T17:22:07.429Z,50.75
2018-11-05T17:24:35.780Z,50.83
2018-11-05T17:27:04.040Z,51.72
2018-11-05T17:29:32.353Z,51.07
2018-11-05T17:32:00.728Z,51.89
2018-11-05T17:34:29.161Z,52.38
2018-11-05T17:36:57.451Z,52.23
2018-11-05T17:39:25.735Z,52.41
2018-11-05T17:41:54.118Z,51.40
2018-11-05T17:44:22.441Z,51.00
2018-11-05T17:46:50.891Z,50.75
2018-11-05T17:49:19.386Z,52.66
2018-11-05T17:51:47.807Z,51.70
2018-11-05T17:54:16.099Z,51.73
2018-11-05T17:56:44.515Z,51.77
2018-11-05T17:59:12.779Z,52.06
2018-11-05T18:01:41.069Z,52.21
2018-11-05T18:04:09.457Z,51.38
2018-11-05T18:06:37.755Z,52.17
2018-11-05T18:09:09.291Z,51.76
2018-11-05T18:11:37.789Z,52.61
2018-11-05T18:14:06.249Z,52.10
2018-11-05T18:16:34.549Z,52.59
2018-11-05T18:19:02.991Z,52.79
2018-11-05T18:21:31.308Z,52.36
2018-11-05T18:23:59.759Z,53.16
2018-11-05T18:26:28.149Z,53.02
2018-11-05T18:28:56.855Z,52.82
2018-11-05T18:31:25.206Z,53.15
2018-11-05T18:33:53.664Z,53.79
2018-11-05T18:36:22.099Z,52.94
2018-11-05T18:38:50.384Z,53.07
2018-11-05T18:41:18.741Z,53.37
2018-11-05T18:43:47.113Z,53.13
2018-11-05T18:46:15.553Z,52.66
2018-11-05T18:48:43.873Z,53.17
2018-11-05T18:51:12.286Z,53.39
2018-11-05T18:53:40.659Z,53.27
2018-11-05T18:56:08.999Z,53.05
2018-11-05T18:58:37.471Z,53.42
2018-11-05T19:01:05.943Z,53.53
2018-11-05T19:03:34.495Z,53.65
2018-11-05T19:06:02.843Z,54.07
2018-11-05T19:08:31.286Z,53.58
2018-11-05T19:10:59.693Z,53.09
2018-11-05T19:13:28.044Z,53.88
2018-11-05T19:15:56.418Z,53.16
2018-11-05T19:18:24.855Z,53.89
2018-11-05T19:20:53.186Z,54.31
2018-11-05T19:23:21.989Z,55.38
2018-11-05T19:25:50.181Z,55.40
2018-11-05T19:28:18.517Z,55.99
2018-11-05T19:30:46.851Z,55.44
2018-11-05T19:33:15.240Z,54.64
2018-11-05T19:35:43.596Z,54.68
2018-11-05T19:38:11.945Z,55.13
2018-11-05T19:40:40.254Z,54.32
2018-11-05T19:43:08.723Z,55.16
2018-11-05T19:45:37.050Z,54.31
2018-11-05T19:48:05.558Z,54.79
2018-11-05T19:50:34.035Z,54.67
2018-11-05T19:53:02.539Z,54.94
2018-11-05T19:55:30.933Z,55.16
2018-11-05T19:57:59.274Z,55.44
2018-11-05T20:00:28.729Z,54.84
2018-11-05T20:02:58.274Z,54.56
2018-11-05T20:05:26.796Z,55.51
2018-11-05T20:07:56.085Z,55.07
2018-11-05T20:10:24.380Z,55.01
2018-11-05T20:12:52.873Z,54.66
2018-11-05T20:15:21.394Z,54.73
2018-11-05T20:17:50.960Z,54.92
2018-11-05T20:20:21.072Z,55.12
2018-11-05T20:22:49.408Z,54.99
2018-11-05T20:25:17.949Z,55.00
2018-11-05T20:27:46.419Z,55.60
2018-11-05T20:30:19.516Z,54.78
2018-11-05T20:32:49.419Z,54.66
2018-11-05T20:35:17.597Z,55.11
2018-11-05T20:37:45.904Z,55.56
2018-11-05T20:40:16.442Z,55.86
2018-11-05T20:42:45.979Z,55.84
2018-11-05T20:45:14.803Z,55.14
2018-11-05T20:47:44.523Z,54.11
2018-11-05T20:50:13.604Z,54.96
2018-11-05T20:52:42.163Z,54.74
2018-11-05T20:55:11.912Z,55.72
2018-11-05T20:57:41.008Z,56.44
2018-11-05T21:00:11.146Z,55.76
2018-11-05T21:02:40.087Z,55.55
2018-11-05T21:05:09.767Z,55.08
2018-11-05T21:07:39.305Z,54.85
2018-11-05T21:10:09.600Z,55.03
2018-11-05T21:12:39.159Z,55.25
2018-11-05T21:15:12.299Z,55.41
2018-11-05T21:17:41.039Z,55.48
2018-11-05T21:20:09.433Z,55.97
2018-11-05T21:22:37.931Z,55.21
2018-11-05T21:25:06.461Z,55.38
2018-11-05T21:27:34.715Z,56.02
2018-11-05T21:30:03.435Z,55.57
2018-11-05T21:32:33.163Z,55.24
2018-11-05T21:35:01.580Z,55.42
2018-11-05T21:37:29.886Z,54.40
2018-11-05T21:39:58.251Z,54.77
2018-11-05T21:42:26.851Z,54.81
2018-11-05T21:44:55.100Z,55.51
2018-11-05T21:47:24.319Z,54.84
2018-11-05T21:49:53.251Z,55.42
2018-11-05T21:52:21.599Z,55.94
2018-11-05T21:54:49.920Z,55.86
2018-11-05T21:57:18.237Z,55.39
2018-11-05T21:59:46.557Z,55.61
2018-11-05T22:02:14.914Z,55.54
2018-11-05T22:04:43.253Z,55.08
2018-11-05T22:07:15.406Z,55.74
2018-11-05T22:09:45.021Z,54.76
2018-11-05T22:12:13.500Z,54.56
2018-11-05T22:14:41.794Z,55.26
2018-11-05T22:17:11.184Z,54.91
2018-11-05T22:19:39.554Z,54.10
2018-11-05T22:22:07.845Z,54.87
2018-11-05T22:24:36.250Z,54.67
2018-11-05T22:27:04.718Z,54.39
2018-11-05T22:29:33.053Z,54.82
2018-11-05T22:32:01.467Z,54.50
2018-11-05T22:34:29.772Z,53.95
2018-11-05T22:36:58.104Z,55.40
2018-11-05T22:39:26.662Z,56.01
2018-11-05T22:41:55.032Z,55.37
2018-11-05T22:44:24.262Z,54.65
2018-11-05T22:46:52.602Z,54.88
2018-11-05T22:49:20.929Z,54.81
2018-11-05T22:51:50.204Z,54.66
2018-11-05T22:54:18.504Z,55.06
2018-11-05T22:56:47.091Z,55.10
2018-11-05T22:59:15.672Z,54.65
2018-11-05T23:01:49.148Z,54.59
2018-11-05T23:04:17.493Z,54.64
2018-11-05T23:06:45.902Z,56.09
2018-11-05T23:09:14.210Z,54.57
2018-11-05T23:11:42.590Z,54.15
2018-11-05T23:14:10.844Z,54.91
2018-11-05T23:16:39.116Z,55.31
2018-11-05T23:19:07.404Z,55.16
2018-11-05T23:21:35.731Z,55.13
2018-11-05T23:24:04.562Z,54.61
2018-11-05T23:26:32.871Z,54.29
2018-11-05T23:29:01.160Z,55.13
2018-11-05T23:31:29.573Z,54.43
2018-11-05T23:33:57.927Z,55.00
2018-11-05T23:36:26.229Z,54.40
2018-11-05T23:38:54.803Z,55.43
2018-11-05T23:41:23.126Z,54.88
2018-11-05T23:43:51.444Z,56.63
2018-11-05T23:46:19.724Z,55.67
2018-11-05T23:48:48.042Z,55.61
2018-11-05T23:51:16.384Z,55.37
2018-11-05T23:53:44.923Z,55.08
2018-11-05T23:56:13.240Z,54.57
2018-11-05T23:58:41.566Z,55.06
